Juneau International Airport Juneau US
ICAO: PAJN
IATA: JNU
Category: Medium
Scheduled Services:

Elevation: 21 ft
TransAlt. 18000 ft.

Airport Communications:
ATIS:135.2
TWEB:114
ANCHORAGE CNTR:133.9
CTAF:118.7
RDO:122.2
GND:121.9
RDO:122.15
NAT GD OPS:124.65
TWR:118.7
UNICOM:122.95

PAJN Zoom In..

Runways:

(A) RW 08 length 8457 ft width 150 ft
---- / hdg 85

(B) RW 26 length 8457 ft width 150 ft
---- / hdg 265

Location; PAJN
Day. 25 / Time. 01.26 Zulu
* Altimeter: 29.63
* Temperature: 01° c. 33.8°f.
* Wind from: 000° Speed 00 kn.
Dewpoint: 00° c.
Visibility: 10 Statute Miles.
Clouds: Broken 900 ft.

PAJN 250126Z 00000KT 10SM BKN009 01/00 A2963 RMK AO2 T00110000 $

Going to: --> -->


Wind - Calm.

 
 
jpsmedia worldairports.se 2020   terms of use